Terminal Aerodrome Forecast
Issued by NWS

Home | Current Version | Previous Version | Text Only | Print | Product List | Glossary On
Versions: 1 2 3 4 5 6 7 8 9 10 11 12 13
978
FTUS43 KMQT 272335
TAFIWD
TAF
KIWD 272335Z 2800/2824 VRB03KT P6SM BKN150
     FM280200 22003KT P6SM BKN150
     FM281200 20006KT P6SM VCSH BKN080
     FM281800 26008KT P6SM VCSH BKN040=

USA.gov is the U.S. government's official web portal to all federal, state and local government web resources and services.